createdAt,value
2017-06-21T00:00:34.324Z,83.65
2017-06-21T00:01:34.354Z,84.14
2017-06-21T00:02:34.380Z,84.14
2017-06-21T00:03:34.424Z,84.52
2017-06-21T00:04:34.458Z,84.52
2017-06-21T00:05:34.526Z,84.42
2017-06-21T00:06:34.515Z,85.28
2017-06-21T00:07:34.576Z,85.05
2017-06-21T00:08:34.609Z,85.25
2017-06-21T00:09:34.632Z,85.25
2017-06-21T00:10:34.678Z,85.05
2017-06-21T00:11:34.712Z,85.25
2017-06-21T00:12:34.753Z,85.25
2017-06-21T00:13:34.780Z,85.72
2017-06-21T00:14:34.824Z,85.92
2017-06-21T00:15:34.857Z,86.01
2017-06-21T00:16:34.903Z,85.82
2017-06-21T00:17:34.931Z,84.86
2017-06-21T00:18:34.970Z,84.72
2017-06-21T00:19:35.006Z,85.78
2017-06-21T00:20:35.036Z,86.25
2017-06-21T00:21:35.084Z,85.78
2017-06-21T00:22:35.116Z,85.01
2017-06-21T00:23:35.148Z,84.91
2017-06-21T00:24:35.182Z,85.68
2017-06-21T00:25:35.219Z,85.49
2017-06-21T00:26:35.257Z,85.68
2017-06-21T00:27:35.277Z,85.49
2017-06-21T00:28:35.332Z,84.72
2017-06-21T00:29:35.376Z,83.86
2017-06-21T00:30:35.398Z,83.58
2017-06-21T00:31:35.438Z,83.48
2017-06-21T00:32:35.464Z,83.29
2017-06-21T00:33:35.504Z,83.58
2017-06-21T00:34:35.540Z,83.38
2017-06-21T00:35:35.589Z,83.09
2017-06-21T00:36:35.618Z,83
2017-06-21T00:37:35.707Z,82.81
2017-06-21T00:38:35.693Z,83
2017-06-21T00:39:35.724Z,82.32
2017-06-21T00:40:35.769Z,82.32
2017-06-21T00:41:35.795Z,82.04
2017-06-21T00:42:35.836Z,82.14
2017-06-21T00:43:35.869Z,81.75
2017-06-21T00:44:35.902Z,81.85
2017-06-21T00:45:35.944Z,81.66
2017-06-21T00:46:35.964Z,81.62
2017-06-21T00:47:35.995Z,81.37
2017-06-21T00:48:36.046Z,81.56
2017-06-21T00:49:36.088Z,80.99
2017-06-21T00:50:36.115Z,81.13
2017-06-21T00:51:36.156Z,81.37
2017-06-21T00:52:36.195Z,81.33
2017-06-21T00:53:36.229Z,81.52
2017-06-21T00:54:36.266Z,81.52
2017-06-21T00:55:36.300Z,82.29
2017-06-21T00:56:36.335Z,81.52
2017-06-21T00:57:36.369Z,81.33
2017-06-21T00:58:36.404Z,81.71
2017-06-21T00:59:36.442Z,81.9
2017-06-21T01:00:36.478Z,81.62
2017-06-21T01:01:36.520Z,81.52
2017-06-21T01:02:36.557Z,81.52
2017-06-21T01:03:36.591Z,81.71
2017-06-21T01:04:36.602Z,81.57
2017-06-21T01:05:36.668Z,81.86
2017-06-21T01:06:36.700Z,81.96
2017-06-21T01:07:36.733Z,82.63
2017-06-21T01:08:36.766Z,81.67
2017-06-21T01:09:36.786Z,81.77
2017-06-21T01:10:36.837Z,81.77
2017-06-21T01:11:36.869Z,82.15
2017-06-21T01:12:36.906Z,83.11
2017-06-21T01:13:36.929Z,82.73
2017-06-21T01:14:36.983Z,82.43
2017-06-21T01:15:36.998Z,82.43
2017-06-21T01:16:37.057Z,82.06
2017-06-21T01:17:37.090Z,81.67
2017-06-21T01:18:37.127Z,81.77
2017-06-21T01:19:37.158Z,82.73
2017-06-21T01:20:37.203Z,83.68
2017-06-21T01:21:37.228Z,83.68
2017-06-21T01:22:37.278Z,84.31
2017-06-21T01:23:37.300Z,83.87
2017-06-21T01:24:37.333Z,83.83
2017-06-21T01:25:37.368Z,83.64
2017-06-21T01:26:37.408Z,84.02
2017-06-21T01:27:37.439Z,83.45
2017-06-21T01:28:37.479Z,84.88
2017-06-21T01:29:37.512Z,84.41
2017-06-21T01:30:37.539Z,84.22
2017-06-21T01:31:37.593Z,83.93
2017-06-21T01:32:37.613Z,83.64
2017-06-21T01:33:37.643Z,83.45
2017-06-21T01:34:37.688Z,84.5
2017-06-21T01:35:37.708Z,84.12
2017-06-21T01:36:37.756Z,83.26
2017-06-21T01:37:37.797Z,84.12
2017-06-21T01:38:37.834Z,83.83
2017-06-21T01:39:37.867Z,83.45
2017-06-21T01:40:37.904Z,83.93
2017-06-21T01:41:37.936Z,84.02
2017-06-21T01:42:37.975Z,84.02
2017-06-21T01:43:38.009Z,84.79
2017-06-21T01:44:38.044Z,86.18
2017-06-21T01:45:38.077Z,85.84
2017-06-21T01:46:38.307Z,85.22
2017-06-21T01:47:38.149Z,86.57
2017-06-21T01:48:38.170Z,87.04
2017-06-21T01:49:38.409Z,86.57
2017-06-21T01:50:38.441Z,86.18
2017-06-21T01:51:38.267Z,86.28
2017-06-21T01:52:38.303Z,86.08
2017-06-21T01:53:38.359Z,85.32
2017-06-21T01:54:38.860Z,85.32
2017-06-21T01:55:38.421Z,85.61
2017-06-21T01:56:38.473Z,85.51
2017-06-21T01:57:38.517Z,85.32
2017-06-21T01:58:38.518Z,85.71
2017-06-21T01:59:38.589Z,86.08
2017-06-21T02:00:38.616Z,85.8
2017-06-21T02:01:38.626Z,85.32
2017-06-21T02:02:38.674Z,85.22
2017-06-21T02:03:38.717Z,86.37
2017-06-21T02:04:38.752Z,86.37
2017-06-21T02:05:38.797Z,86.28
2017-06-21T02:06:38.824Z,86.66
2017-06-21T02:07:38.840Z,86.18
2017-06-21T02:08:38.865Z,86.18
2017-06-21T02:09:39.121Z,85.89
2017-06-21T02:10:38.960Z,86.33
2017-06-21T02:11:38.999Z,86.18
2017-06-21T02:12:39.031Z,88.29
2017-06-21T02:13:39.259Z,88.09
2017-06-21T02:14:39.307Z,87.19
2017-06-21T02:15:39.137Z,87
2017-06-21T02:16:39.162Z,86.71
2017-06-21T02:17:39.199Z,87
2017-06-21T02:18:39.257Z,86.61
2017-06-21T02:19:39.266Z,86.61
2017-06-21T02:20:39.293Z,86.52
2017-06-21T02:21:39.528Z,86.52
2017-06-21T02:22:39.580Z,86.33
2017-06-21T02:23:39.409Z,86.8
2017-06-21T02:24:39.448Z,87.95
2017-06-21T02:25:39.718Z,88.34
2017-06-21T02:26:39.511Z,87.95
2017-06-21T02:27:39.560Z,87.95
2017-06-21T02:28:39.574Z,88.43
2017-06-21T02:29:39.599Z,87.57
2017-06-21T02:30:39.860Z,87.57
2017-06-21T02:31:39.692Z,87.66
2017-06-21T02:32:39.727Z,88.15
2017-06-21T02:33:39.764Z,88.62
2017-06-21T02:34:39.777Z,87.95
2017-06-21T02:35:39.827Z,87.38
2017-06-21T02:36:39.845Z,87.29
2017-06-21T02:37:39.897Z,87.29
2017-06-21T02:38:39.930Z,86.71
2017-06-21T02:39:39.961Z,86.8
2017-06-21T02:40:40.001Z,86.23
2017-06-21T02:41:40.037Z,86.52
2017-06-21T02:42:40.056Z,86.71
2017-06-21T02:43:40.106Z,87.95
2017-06-21T02:44:40.118Z,88.81
2017-06-21T02:45:40.171Z,88.72
2017-06-21T02:46:40.209Z,87.57
2017-06-21T02:47:40.250Z,87.57
2017-06-21T02:48:40.278Z,86.9
2017-06-21T02:49:40.312Z,88.05
2017-06-21T02:50:40.353Z,87.57
2017-06-21T02:51:40.387Z,87.95
2017-06-21T02:52:40.418Z,87.19
2017-06-21T02:53:40.458Z,87.09
2017-06-21T02:54:40.495Z,87.57
2017-06-21T02:55:40.521Z,87.48
2017-06-21T02:56:40.560Z,88.15
2017-06-21T02:57:40.586Z,88.53
2017-06-21T02:58:40.628Z,88.34
2017-06-21T02:59:40.662Z,87.43
2017-06-21T03:00:40.692Z,87.95
2017-06-21T03:01:40.730Z,87.66
2017-06-21T03:02:40.745Z,87.57
2017-06-21T03:03:40.803Z,88.62
2017-06-21T03:04:40.835Z,88.58
2017-06-21T03:05:40.861Z,88.62
2017-06-21T03:06:40.900Z,87.95
2017-06-21T03:07:40.940Z,88.2
2017-06-21T03:08:40.968Z,87.57
2017-06-21T03:09:41.007Z,87.57
2017-06-21T03:10:41.035Z,87.48
2017-06-21T03:11:41.060Z,87.38
2017-06-21T03:12:41.115Z,86.9
2017-06-21T03:13:41.149Z,87.86
2017-06-21T03:14:41.184Z,87.95
2017-06-21T03:15:41.213Z,87.76
2017-06-21T03:16:41.250Z,87.29
2017-06-21T03:17:41.282Z,87.38
2017-06-21T03:18:41.316Z,87.19
2017-06-21T03:19:41.358Z,87.48
2017-06-21T03:20:41.385Z,87.09
2017-06-21T03:21:41.424Z,87.48
2017-06-21T03:22:41.439Z,87.95
2017-06-21T03:23:41.474Z,88.53
2017-06-21T03:24:41.528Z,89.2
2017-06-21T03:25:41.558Z,89.01
2017-06-21T03:26:41.593Z,89.67
2017-06-21T03:27:41.627Z,89.39
2017-06-21T03:28:41.660Z,88.81
2017-06-21T03:29:41.695Z,89.01
2017-06-21T03:30:41.734Z,88.62
2017-06-21T03:31:41.762Z,88.62
2017-06-21T03:32:41.806Z,87.86
2017-06-21T03:33:41.818Z,89.1
2017-06-21T03:34:41.864Z,88.53
2017-06-21T03:35:41.899Z,88.15
2017-06-21T03:36:41.938Z,87.95
2017-06-21T03:37:41.977Z,89.48
2017-06-21T03:38:42.008Z,89.2
2017-06-21T03:39:42.049Z,89.48
2017-06-21T03:40:42.058Z,89.77
2017-06-21T03:41:42.111Z,89.48
2017-06-21T03:42:42.147Z,89.1
2017-06-21T03:43:42.176Z,89.01
2017-06-21T03:44:42.210Z,88.91
2017-06-21T03:45:42.249Z,88.81
2017-06-21T03:46:42.269Z,89.2
2017-06-21T03:47:42.315Z,88.43
2017-06-21T03:48:42.362Z,88.53
2017-06-21T03:49:42.371Z,89.77
2017-06-21T03:50:42.421Z,88.81
2017-06-21T03:51:42.456Z,89.29
2017-06-21T03:52:42.493Z,88.53
2017-06-21T03:53:42.531Z,87.66
2017-06-21T03:54:42.563Z,89.29
2017-06-21T03:55:42.598Z,89.67
2017-06-21T03:56:42.629Z,89.67
2017-06-21T03:57:42.670Z,89.91
2017-06-21T03:58:42.698Z,89.01
2017-06-21T03:59:42.735Z,89.05
2017-06-21T04:00:42.782Z,88.57
2017-06-21T04:01:42.812Z,88.05
2017-06-21T04:02:42.838Z,87.81
2017-06-21T04:03:42.872Z,87.9
2017-06-21T04:04:42.908Z,88.09
2017-06-21T04:05:42.942Z,87.52
2017-06-21T04:06:42.971Z,87.81
2017-06-21T04:07:43.008Z,87.62
2017-06-21T04:08:43.046Z,87.52
2017-06-21T04:09:43.078Z,87.62
2017-06-21T04:10:43.118Z,87.9
2017-06-21T04:11:43.127Z,87.52
2017-06-21T04:12:43.179Z,87.52
2017-06-21T04:13:43.201Z,87.52
2017-06-21T04:14:43.259Z,87.95
2017-06-21T04:15:43.290Z,87.56
2017-06-21T04:16:43.323Z,86.55
2017-06-21T04:17:43.366Z,84.68
2017-06-21T04:18:43.389Z,83.29
2017-06-21T04:19:43.431Z,81.22
2017-06-21T04:20:43.448Z,78.52
2017-06-21T04:21:43.509Z,76.82
2017-06-21T04:22:43.539Z,75.62
2017-06-21T04:23:43.564Z,74.88
2017-06-21T04:24:43.611Z,74.02
2017-06-21T04:25:43.638Z,73.54
2017-06-21T04:26:43.683Z,72.71
2017-06-21T04:27:43.717Z,70.72
2017-06-21T04:28:43.757Z,69.06
2017-06-21T04:29:43.783Z,66.72
2017-06-21T04:30:43.819Z,64.08
2017-06-21T04:31:43.871Z,63.15
2017-06-21T04:32:43.901Z,62.02
2017-06-21T04:33:43.951Z,60.99
2017-06-21T04:34:43.985Z,60.79
2017-06-21T04:35:44.037Z,61.92
2017-06-21T04:36:44.065Z,63.4
2017-06-21T04:37:44.084Z,65.37
2017-06-21T04:38:44.181Z,66.75
2017-06-21T04:39:44.187Z,67.97
2017-06-21T04:40:44.211Z,69.09
2017-06-21T04:41:44.240Z,70.24
2017-06-21T04:42:44.292Z,70.3
2017-06-21T04:43:44.330Z,70.59
2017-06-21T04:44:44.369Z,71.14
2017-06-21T04:45:44.401Z,71.71
2017-06-21T04:46:44.445Z,72.29
2017-06-21T04:47:44.469Z,72
2017-06-21T04:48:44.523Z,71.08
2017-06-21T04:49:44.564Z,69.57
2017-06-21T04:50:44.581Z,68.93
2017-06-21T04:51:44.621Z,68.19
2017-06-21T04:52:44.684Z,68.26
2017-06-21T04:53:44.715Z,69.22
2017-06-21T04:54:44.760Z,69.28
2017-06-21T04:55:44.793Z,69.76
2017-06-21T04:56:44.820Z,69.95
2017-06-21T04:57:44.873Z,70.34
2017-06-21T04:58:44.901Z,71.46
2017-06-21T04:59:44.956Z,71.71
2017-06-21T05:00:44.995Z,72.67
2017-06-21T05:01:45.032Z,72.92
2017-06-21T05:02:45.070Z,73.41
2017-06-21T05:03:45.101Z,73.31
2017-06-21T05:04:45.147Z,73.21
2017-06-21T05:05:45.195Z,73.41
2017-06-21T05:06:45.229Z,73.88
2017-06-21T05:07:45.267Z,73.75
2017-06-21T05:08:45.300Z,73.98
2017-06-21T05:09:45.344Z,73.69
2017-06-21T05:10:45.379Z,73.31
2017-06-21T05:11:45.415Z,71.52
2017-06-21T05:12:45.440Z,70.43
2017-06-21T05:13:45.495Z,70.24
2017-06-21T05:14:45.531Z,70.24
2017-06-21T05:15:45.554Z,70.34
2017-06-21T05:16:45.608Z,70.3
2017-06-21T05:17:45.650Z,70.34
2017-06-21T05:18:45.688Z,69.09
2017-06-21T05:19:45.730Z,66.94
2017-06-21T05:20:45.759Z,65.53
2017-06-21T05:21:45.805Z,64.05
2017-06-21T05:22:45.843Z,63.95
2017-06-21T05:23:45.886Z,63.85
2017-06-21T05:24:45.924Z,65.17
2017-06-21T05:25:45.960Z,65.43
2017-06-21T05:26:46.000Z,66.49
2017-06-21T05:27:46.040Z,66.36
2017-06-21T05:28:46.079Z,66.85
2017-06-21T05:29:46.122Z,68.06
2017-06-21T05:30:46.160Z,68.44
2017-06-21T05:31:46.196Z,68.9
2017-06-21T05:32:46.229Z,69.57
2017-06-21T05:33:46.280Z,70.21
2017-06-21T05:34:46.320Z,70.88
2017-06-21T05:35:46.337Z,71.84
2017-06-21T05:36:46.391Z,71.81
2017-06-21T05:37:46.436Z,71.42
2017-06-21T05:38:46.464Z,70.5
2017-06-21T05:39:46.541Z,71.01
2017-06-21T05:40:46.541Z,70.24
2017-06-21T05:41:46.598Z,70.34
2017-06-21T05:42:46.635Z,70.24
2017-06-21T05:43:46.675Z,70.24
2017-06-21T05:44:46.707Z,70.34
2017-06-21T05:45:46.737Z,70.62
2017-06-21T05:46:46.784Z,70.98
2017-06-21T05:47:46.827Z,71.08
2017-06-21T05:48:46.837Z,71.65
2017-06-21T05:49:46.902Z,71.46
2017-06-21T05:50:46.944Z,70.98
2017-06-21T05:51:46.972Z,70.15
2017-06-21T05:52:47.018Z,69.76
2017-06-21T05:53:47.040Z,68.84
2017-06-21T05:54:47.087Z,68.38
2017-06-21T05:55:47.131Z,68.48
2017-06-21T05:56:47.169Z,69.02
2017-06-21T05:57:47.210Z,69.12
2017-06-21T05:58:47.223Z,69.7
2017-06-21T05:59:47.280Z,70.15
2017-06-21T06:00:47.325Z,69.95
2017-06-21T06:01:47.357Z,69.99
2017-06-21T06:02:47.392Z,69.7
2017-06-21T06:03:47.431Z,69.6
2017-06-21T06:04:47.433Z,70.28
2017-06-21T06:05:47.634Z,70.28
2017-06-21T06:06:47.540Z,70.15
2017-06-21T06:07:47.583Z,70.24
2017-06-21T06:08:47.621Z,70.24
2017-06-21T06:09:47.656Z,69.6
2017-06-21T06:10:47.696Z,69.15
2017-06-21T06:11:47.738Z,68.32
2017-06-21T06:12:47.777Z,68.04
2017-06-21T06:13:47.816Z,67.36
2017-06-21T06:14:47.837Z,66.62
2017-06-21T06:15:48.037Z,65.5
2017-06-21T06:16:47.917Z,63.15
2017-06-21T06:17:47.966Z,60.99
2017-06-21T06:18:48.014Z,58.39
2017-06-21T06:19:48.037Z,54.99
2017-06-21T06:20:48.081Z,53.13
2017-06-21T06:21:48.131Z,51.45
2017-06-21T06:22:48.150Z,49.68
2017-06-21T06:23:48.205Z,47.19
2017-06-21T06:24:48.237Z,45.53
2017-06-21T06:25:48.269Z,44.2
2017-06-21T06:26:48.329Z,42.8
2017-06-21T06:27:48.369Z,41.37
2017-06-21T06:28:48.442Z,41.11
2017-06-21T06:29:48.446Z,39.29
2017-06-21T06:30:48.497Z,38.15
2017-06-21T06:31:48.538Z,37.48
2017-06-21T06:32:48.559Z,36.8
2017-06-21T06:33:48.623Z,36.43
2017-06-21T06:34:48.664Z,35.96
2017-06-21T06:35:48.706Z,34.99
2017-06-21T06:36:48.746Z,34.82
2017-06-21T06:37:48.795Z,33.94
2017-06-21T06:38:48.837Z,33.75
2017-06-21T06:39:48.879Z,33.95
2017-06-21T06:40:48.929Z,34.05
2017-06-21T06:41:48.981Z,33.47
2017-06-21T06:42:49.010Z,32.92
2017-06-21T06:43:49.044Z,32.04
2017-06-21T06:44:49.087Z,32.04
2017-06-21T06:45:49.143Z,32.34
2017-06-21T06:46:49.189Z,31.77
2017-06-21T06:47:49.235Z,31.59
2017-06-21T06:48:49.292Z,31.81
2017-06-21T06:49:49.325Z,31.6
2017-06-21T06:50:49.366Z,31.02
2017-06-21T06:51:49.415Z,30.55
2017-06-21T06:52:49.466Z,30.46
2017-06-21T06:53:49.489Z,30.16
2017-06-21T06:54:49.547Z,29.88
2017-06-21T06:55:49.598Z,29.98
2017-06-21T06:56:49.647Z,30.38
2017-06-21T06:57:49.691Z,29.28
2017-06-21T06:58:49.719Z,29.19
2017-06-21T06:59:49.783Z,29.55
2017-06-21T07:00:49.830Z,29.75
2017-06-21T07:01:49.985Z,30.22
2017-06-21T07:02:49.919Z,30.33
2017-06-21T07:03:49.969Z,30.05
2017-06-21T07:04:50.017Z,29.47
2017-06-21T07:05:50.060Z,29.27
2017-06-21T07:06:50.190Z,29.74
2017-06-21T07:07:50.150Z,29.34
2017-06-21T07:08:50.203Z,29.65
2017-06-21T07:09:50.246Z,29.14
2017-06-21T07:10:50.298Z,29.64
2017-06-21T07:11:50.338Z,29.34
2017-06-21T07:12:50.400Z,28.97
2017-06-21T07:13:50.431Z,28.19
2017-06-21T07:14:50.483Z,28.29
2017-06-21T07:15:50.527Z,28.96
2017-06-21T07:16:50.575Z,28.94
2017-06-21T07:17:50.623Z,29.34
2017-06-21T07:18:50.670Z,29.94
2017-06-21T07:19:50.690Z,28.86
2017-06-21T07:20:50.764Z,28.97
2017-06-21T07:21:50.805Z,29.27
2017-06-21T07:22:50.855Z,28.77
2017-06-21T07:23:50.900Z,28.39
2017-06-21T07:24:50.956Z,28.41
2017-06-21T07:25:50.981Z,28.12
2017-06-21T07:26:51.050Z,28.03
2017-06-21T07:27:51.094Z,27.75
2017-06-21T07:28:51.139Z,27.28
2017-06-21T07:29:51.192Z,26.99
2017-06-21T07:30:51.212Z,27
2017-06-21T07:31:51.281Z,26.62
2017-06-21T07:32:51.326Z,26.62
2017-06-21T07:33:51.376Z,27
2017-06-21T07:34:51.408Z,27.86
2017-06-21T07:35:51.474Z,28.6
2017-06-21T07:36:51.514Z,29.25
2017-06-21T07:37:51.530Z,30.58
2017-06-21T07:38:51.610Z,30.85
2017-06-21T07:39:51.655Z,30.37
2017-06-21T07:40:51.710Z,30.02
2017-06-21T07:41:51.745Z,29.17
2017-06-21T07:42:51.799Z,28.41
2017-06-21T07:43:51.845Z,27.94
2017-06-21T07:44:51.898Z,27.65
2017-06-21T07:45:51.943Z,27.08
2017-06-21T07:46:51.974Z,26.9
2017-06-21T07:47:52.133Z,26.72
2017-06-21T07:48:52.079Z,26.84
2017-06-21T07:49:52.130Z,27.51
2017-06-21T07:50:52.206Z,27.76
2017-06-21T07:51:52.229Z,27.94
2017-06-21T07:52:52.268Z,28.13
2017-06-21T07:53:52.303Z,27.26
2017-06-21T07:54:52.365Z,27.28
2017-06-21T07:55:52.393Z,27.29
2017-06-21T07:56:52.455Z,26.9
2017-06-21T07:57:52.507Z,26.81
2017-06-21T07:58:52.550Z,26.42
2017-06-21T07:59:52.607Z,26.83
2017-06-21T08:00:52.649Z,26.14
2017-06-21T08:01:52.702Z,25.73
2017-06-21T08:02:52.742Z,25.65
2017-06-21T08:03:52.794Z,25.74
2017-06-21T08:04:52.845Z,25.63
2017-06-21T08:05:52.888Z,25.73
2017-06-21T08:06:52.933Z,26.02
2017-06-21T08:07:52.982Z,26.12
2017-06-21T08:08:53.015Z,26.14
2017-06-21T08:09:53.082Z,26.04
2017-06-21T08:10:53.116Z,25.74
2017-06-21T08:11:53.175Z,26.04
2017-06-21T08:12:53.213Z,26.07
2017-06-21T08:13:53.280Z,25.47
2017-06-21T08:14:53.321Z,25.67
2017-06-21T08:15:53.372Z,25.97
2017-06-21T08:16:53.416Z,26.81
2017-06-21T08:17:53.466Z,27.24
2017-06-21T08:18:53.515Z,27.42
2017-06-21T08:19:53.566Z,27.34
2017-06-21T08:20:53.615Z,27.54
2017-06-21T08:21:53.660Z,27.55
2017-06-21T08:22:53.717Z,26.99
2017-06-21T08:23:53.757Z,26.52
2017-06-21T08:24:53.811Z,25.66
2017-06-21T08:25:53.875Z,25.66
2017-06-21T08:26:53.900Z,25.38
2017-06-21T08:27:53.947Z,25.4
2017-06-21T08:28:54.016Z,25.21
2017-06-21T08:29:54.047Z,25.02
2017-06-21T08:30:54.094Z,25.51
2017-06-21T08:31:54.142Z,25.29
2017-06-21T08:32:54.190Z,25.4
2017-06-21T08:33:54.242Z,25.2
2017-06-21T08:34:54.288Z,25.01
2017-06-21T08:35:54.342Z,25.22
2017-06-21T08:36:54.392Z,25.12
2017-06-21T08:37:54.437Z,24.63
2017-06-21T08:38:54.485Z,24.64
2017-06-21T08:39:54.528Z,24.64
2017-06-21T08:40:54.584Z,24.85
2017-06-21T08:41:54.616Z,24.77
2017-06-21T08:42:54.668Z,24.37
2017-06-21T08:43:54.720Z,23.88
2017-06-21T08:44:54.785Z,23.9
2017-06-21T08:45:54.820Z,23.3
2017-06-21T08:46:54.887Z,23.11
2017-06-21T08:47:54.918Z,23.3
2017-06-21T08:48:54.984Z,23.3
2017-06-21T08:49:55.019Z,23
2017-06-21T08:50:55.085Z,23.19
2017-06-21T08:51:55.120Z,23.3
2017-06-21T08:52:55.183Z,23.19
2017-06-21T08:53:55.219Z,23.39
2017-06-21T08:54:55.284Z,23.3
2017-06-21T08:55:55.337Z,23.11
2017-06-21T08:56:55.384Z,23.21
2017-06-21T08:57:55.437Z,23.39
2017-06-21T08:58:55.491Z,23.19
2017-06-21T08:59:55.542Z,22.68
2017-06-21T09:00:55.590Z,23.06
2017-06-21T09:01:55.642Z,23.23
2017-06-21T09:02:55.690Z,23.62
2017-06-21T09:03:55.722Z,23.72
2017-06-21T09:04:55.796Z,23.93
2017-06-21T09:05:55.864Z,23.64
2017-06-21T09:06:55.899Z,23.56
2017-06-21T09:07:55.944Z,23.28
2017-06-21T09:08:55.994Z,23.3
2017-06-21T09:09:56.042Z,22.5
2017-06-21T09:10:56.100Z,22.6
2017-06-21T09:11:56.152Z,23.1
2017-06-21T09:12:56.207Z,22.88
2017-06-21T09:13:56.254Z,23.37
2017-06-21T09:14:56.309Z,23.07
2017-06-21T09:15:56.356Z,23.06
2017-06-21T09:16:56.410Z,22.66
2017-06-21T09:17:56.460Z,22.96
2017-06-21T09:18:56.514Z,23.06
2017-06-21T09:19:56.565Z,22.76
2017-06-21T09:20:56.623Z,22.86
2017-06-21T09:21:56.668Z,22.67
2017-06-21T09:22:56.718Z,22.97
2017-06-21T09:23:56.783Z,22.97
2017-06-21T09:24:56.816Z,22.98
2017-06-21T09:25:56.873Z,22.79
2017-06-21T09:26:56.927Z,22.5
2017-06-21T09:27:56.979Z,22.5
2017-06-21T09:28:57.041Z,22.6
2017-06-21T09:29:57.084Z,23
2017-06-21T09:30:57.136Z,22.41
2017-06-21T09:31:57.191Z,22.81
2017-06-21T09:32:57.233Z,22.91
2017-06-21T09:33:57.288Z,23
2017-06-21T09:34:57.336Z,22.52
2017-06-21T09:35:57.397Z,22.52
2017-06-21T09:36:57.442Z,22.31
2017-06-21T09:37:57.504Z,22.52
2017-06-21T09:38:57.557Z,22.4
2017-06-21T09:39:57.609Z,22.4
2017-06-21T09:40:57.699Z,22.1
2017-06-21T09:41:57.711Z,22.38
2017-06-21T09:42:57.762Z,22.68
2017-06-21T09:43:57.817Z,22.37
2017-06-21T09:44:57.864Z,22.97
2017-06-21T09:45:57.919Z,22.86
2017-06-21T09:46:57.977Z,23.16
2017-06-21T09:47:58.031Z,23.16
2017-06-21T09:48:58.079Z,22.97
2017-06-21T09:49:58.134Z,22.98
2017-06-21T09:50:58.192Z,22.59
2017-06-21T09:51:58.238Z,22.4
2017-06-21T09:52:58.273Z,22.31
2017-06-21T09:53:58.334Z,22.22
2017-06-21T09:54:58.392Z,22.52
2017-06-21T09:55:58.432Z,22.21
2017-06-21T09:56:58.505Z,22.42
2017-06-21T09:57:58.557Z,22.32
2017-06-21T09:58:58.608Z,22.33
2017-06-21T09:59:58.649Z,22.22
2017-06-21T10:00:58.713Z,22.71
2017-06-21T10:01:58.781Z,22.91
2017-06-21T10:02:58.826Z,23
2017-06-21T10:03:58.873Z,22.42
2017-06-21T10:04:58.918Z,22.32
2017-06-21T10:05:58.982Z,22.44
2017-06-21T10:06:59.037Z,22.53
2017-06-21T10:07:59.088Z,22.44
2017-06-21T10:08:59.139Z,22.44
2017-06-21T10:09:59.194Z,22.44
2017-06-21T10:10:59.236Z,22.52
2017-06-21T10:11:59.302Z,22.91
2017-06-21T10:12:59.353Z,22.99
2017-06-21T10:13:59.406Z,22.68
2017-06-21T10:14:59.458Z,22.57
2017-06-21T10:15:59.508Z,22.76
2017-06-21T10:16:59.566Z,22.95
2017-06-21T10:17:59.807Z,23.35
2017-06-21T10:18:59.671Z,23.45
2017-06-21T10:19:59.728Z,23.16
2017-06-21T10:20:59.777Z,22.87
2017-06-21T10:21:59.868Z,22.98
2017-06-21T10:22:59.882Z,22.99
2017-06-21T10:23:59.917Z,22.39
2017-06-21T10:24:59.983Z,22.39
2017-06-21T10:26:00.052Z,22.29
2017-06-21T10:27:00.102Z,22.29
2017-06-21T10:28:00.135Z,22.69
2017-06-21T10:29:00.185Z,22.29
2017-06-21T10:30:02.065Z,22.5
2017-06-21T10:31:00.291Z,22
2017-06-21T10:32:00.331Z,22.39
2017-06-21T10:33:00.379Z,22.66
2017-06-21T10:34:00.437Z,23.23
2017-06-21T10:35:00.497Z,23.21
2017-06-21T10:36:00.535Z,23.88
2017-06-21T10:37:00.598Z,23.79
2017-06-21T10:38:00.631Z,23.9
2017-06-21T10:39:00.676Z,23.8
2017-06-21T10:40:00.735Z,23.52
2017-06-21T10:41:00.766Z,23.71
2017-06-21T10:42:00.828Z,23.62
2017-06-21T10:43:00.869Z,23.53
2017-06-21T10:44:00.921Z,23.33
2017-06-21T10:45:01.020Z,23.63
2017-06-21T10:46:01.026Z,23.63
2017-06-21T10:47:01.060Z,23.04
2017-06-21T10:48:01.110Z,23.04
2017-06-21T10:49:01.164Z,23.34
2017-06-21T10:50:01.202Z,23.14
2017-06-21T10:51:01.257Z,22.95
2017-06-21T10:52:01.296Z,22.56
2017-06-21T10:53:01.329Z,22.46
2017-06-21T10:54:01.387Z,22.27
2017-06-21T10:55:01.434Z,22.17
2017-06-21T10:56:01.483Z,22.07
2017-06-21T10:57:01.532Z,21.97
2017-06-21T10:58:01.570Z,22.07
2017-06-21T10:59:01.614Z,22.36
2017-06-21T11:00:01.666Z,22.46
2017-06-21T11:01:01.708Z,22.73
2017-06-21T11:02:01.739Z,22.81
2017-06-21T11:03:01.786Z,23.1
2017-06-21T11:04:01.838Z,23.3
2017-06-21T11:05:01.881Z,23.19
2017-06-21T11:06:02.120Z,22.89
2017-06-21T11:07:01.964Z,22.99
2017-06-21T11:08:02.027Z,22.99
2017-06-21T11:09:02.037Z,23.08
2017-06-21T11:10:02.107Z,22.88
2017-06-21T11:11:02.140Z,23.37
2017-06-21T11:12:02.184Z,23.68
2017-06-21T11:13:02.227Z,23.19
2017-06-21T11:14:02.297Z,23.69
2017-06-21T11:15:02.325Z,23.69
2017-06-21T11:16:02.341Z,23.6
2017-06-21T11:17:02.397Z,23.8
2017-06-21T11:18:02.446Z,23.19
2017-06-21T11:19:02.497Z,23.3
2017-06-21T11:20:02.532Z,23.79
2017-06-21T11:21:02.598Z,23.88
2017-06-21T11:22:02.630Z,23.77
2017-06-21T11:23:02.646Z,24.16
2017-06-21T11:24:02.700Z,24.25
2017-06-21T11:25:02.735Z,23.84
2017-06-21T11:26:02.767Z,24.22
2017-06-21T11:27:02.821Z,24.02
2017-06-21T11:28:02.845Z,24.02
2017-06-21T11:29:02.905Z,24.41
2017-06-21T11:30:02.933Z,24.62
2017-06-21T11:31:02.992Z,25.09
2017-06-21T11:32:03.036Z,25.93
2017-06-21T11:33:03.076Z,27.06
2017-06-21T11:34:03.119Z,28.18
2017-06-21T11:35:03.146Z,29.97
2017-06-21T11:36:03.201Z,31.57
2017-06-21T11:37:03.245Z,32.81
2017-06-21T11:38:03.285Z,33.72
2017-06-21T11:39:03.329Z,34.65
2017-06-21T11:40:03.359Z,35.11
2017-06-21T11:41:03.413Z,35.66
2017-06-21T11:42:03.453Z,37.48
2017-06-21T11:43:03.493Z,38.14
2017-06-21T11:44:03.560Z,38.69
2017-06-21T11:45:03.572Z,39.26
2017-06-21T11:46:03.600Z,39.65
2017-06-21T11:47:03.655Z,39.82
2017-06-21T11:48:03.707Z,40.31
2017-06-21T11:49:03.747Z,40.99
2017-06-21T11:50:03.782Z,40.58
2017-06-21T11:51:03.825Z,40.8
2017-06-21T11:52:03.872Z,40.89
2017-06-21T11:53:03.929Z,40.99
2017-06-21T11:54:03.948Z,40.89
2017-06-21T11:55:03.968Z,40.11
2017-06-21T11:56:04.021Z,40.7
2017-06-21T11:57:04.068Z,40.39
2017-06-21T11:58:04.110Z,40.19
2017-06-21T11:59:04.169Z,40.88
2017-06-21T12:00:04.181Z,40.85
2017-06-21T12:01:04.244Z,41.06
2017-06-21T12:02:04.288Z,40.85
2017-06-21T12:03:04.321Z,40.75
2017-06-21T12:04:04.352Z,41.06
2017-06-21T12:05:04.412Z,41.16
2017-06-21T12:06:04.454Z,41.06
2017-06-21T12:07:04.481Z,41.06
2017-06-21T12:08:04.551Z,41.06
2017-06-21T12:09:04.572Z,41.36
2017-06-21T12:10:04.601Z,40.88
2017-06-21T12:11:04.655Z,40.97
2017-06-21T12:12:04.689Z,40.97
2017-06-21T12:13:04.728Z,40.88
2017-06-21T12:14:04.771Z,41.09
2017-06-21T12:15:04.826Z,40.7
2017-06-21T12:16:04.847Z,40.21
2017-06-21T12:17:04.896Z,39.82
2017-06-21T12:18:04.942Z,40.21
2017-06-21T12:19:04.983Z,40.21
2017-06-21T12:20:05.232Z,40.7
2017-06-21T12:21:05.060Z,40.8
2017-06-21T12:22:05.095Z,40.99
2017-06-21T12:23:05.149Z,40.99
2017-06-21T12:24:05.188Z,41.77
2017-06-21T12:25:05.207Z,42.94
2017-06-21T12:26:05.269Z,42.53
2017-06-21T12:27:05.306Z,41.94
2017-06-21T12:28:05.351Z,41.85
2017-06-21T12:29:05.391Z,42.11
2017-06-21T12:30:05.447Z,42.31
2017-06-21T12:31:05.471Z,42.41
2017-06-21T12:32:05.478Z,42.5
2017-06-21T12:33:05.550Z,42.78
2017-06-21T12:34:05.591Z,42.78
2017-06-21T12:35:05.642Z,41.51
2017-06-21T12:36:05.849Z,42.97
2017-06-21T12:37:05.720Z,43.44
2017-06-21T12:38:05.738Z,43.44
2017-06-21T12:39:05.778Z,42.95
2017-06-21T12:40:05.874Z,43.63
2017-06-21T12:41:05.977Z,43.82
2017-06-21T12:42:05.918Z,44.02
2017-06-21T12:43:05.950Z,43.92
2017-06-21T12:44:06.001Z,44.12
2017-06-21T12:45:06.053Z,43.73
2017-06-21T12:46:06.089Z,42.95
2017-06-21T12:47:06.099Z,42.76
2017-06-21T12:48:06.176Z,42.76
2017-06-21T12:49:06.208Z,42.56
2017-06-21T12:50:06.300Z,42.85
2017-06-21T12:51:06.289Z,42.58
2017-06-21T12:52:06.308Z,41.71
2017-06-21T12:53:06.365Z,41.71
2017-06-21T12:54:06.388Z,42.19
2017-06-21T12:55:06.673Z,41.8
2017-06-21T12:56:06.464Z,41.9
2017-06-21T12:57:06.540Z,41.88